sensor_id;sensor_type;location;lat;lon;timestamp;P1;durP1;ratioP1;P2;durP2;ratioP2
4389;SDS011;2209;48.982;8.406;2022-10-15T00:00:04;0.60;;;0.60;;
4389;SDS011;2209;48.982;8.406;2022-10-15T00:02:28;1.33;;;0.60;;
4389;SDS011;2209;48.982;8.406;2022-10-15T00:04:51;3.53;;;0.83;;
4389;SDS011;2209;48.982;8.406;2022-10-15T00:07:14;2.50;;;0.60;;
4389;SDS011;2209;48.982;8.406;2022-10-15T00:09:36;0.70;;;0.70;;
4389;SDS011;2209;48.982;8.406;2022-10-15T00:11:58;1.93;;;0.60;;
4389;SDS011;2209;48.982;8.406;2022-10-15T00:14:20;2.10;;;2.00;;
4389;SDS011;2209;48.982;8.406;2022-10-15T00:16:43;0.80;;;0.80;;
4389;SDS011;2209;48.982;8.406;2022-10-15T00:19:05;0.60;;;0.60;;
4389;SDS011;2209;48.982;8.406;2022-10-15T00:21:27;1.60;;;0.77;;
4389;SDS011;2209;48.982;8.406;2022-10-15T00:23:50;1.33;;;0.80;;
4389;SDS011;2209;48.982;8.406;2022-10-15T00:26:13;4.20;;;0.60;;
4389;SDS011;2209;48.982;8.406;2022-10-15T00:28:37;0.70;;;0.70;;
4389;SDS011;2209;48.982;8.406;2022-10-15T00:31:00;2.43;;;0.57;;
4389;SDS011;2209;48.982;8.406;2022-10-15T00:33:23;0.93;;;0.70;;
4389;SDS011;2209;48.982;8.406;2022-10-15T00:35:46;0.90;;;0.77;;
4389;SDS011;2209;48.982;8.406;2022-10-15T00:38:08;2.97;;;0.80;;
4389;SDS011;2209;48.982;8.406;2022-10-15T00:40:31;0.90;;;0.60;;
4389;SDS011;2209;48.982;8.406;2022-10-15T00:42:54;0.60;;;0.60;;
4389;SDS011;2209;48.982;8.406;2022-10-15T00:45:16;0.70;;;0.67;;
4389;SDS011;2209;48.982;8.406;2022-10-15T00:47:38;0.70;;;0.70;;
4389;SDS011;2209;48.982;8.406;2022-10-15T00:50:03;2.50;;;0.70;;
4389;SDS011;2209;48.982;8.406;2022-10-15T00:52:29;0.70;;;0.70;;
4389;SDS011;2209;48.982;8.406;2022-10-15T00:54:58;0.70;;;0.70;;
4389;SDS011;2209;48.982;8.406;2022-10-15T00:57:28;0.80;;;0.70;;
4389;SDS011;2209;48.982;8.406;2022-10-15T00:59:52;2.60;;;0.73;;
4389;SDS011;2209;48.982;8.406;2022-10-15T01:02:19;0.90;;;0.70;;
4389;SDS011;2209;48.982;8.406;2022-10-15T01:04:41;0.90;;;0.60;;
4389;SDS011;2209;48.982;8.406;2022-10-15T01:07:03;0.60;;;0.60;;
4389;SDS011;2209;48.982;8.406;2022-10-15T01:09:26;1.43;;;0.70;;
4389;SDS011;2209;48.982;8.406;2022-10-15T01:11:49;1.47;;;0.70;;
4389;SDS011;2209;48.982;8.406;2022-10-15T01:14:21;0.70;;;0.70;;
4389;SDS011;2209;48.982;8.406;2022-10-15T01:16:56;0.80;;;0.60;;
4389;SDS011;2209;48.982;8.406;2022-10-15T01:19:34;1.27;;;0.70;;
4389;SDS011;2209;48.982;8.406;2022-10-15T01:22:12;1.63;;;0.70;;
4389;SDS011;2209;48.982;8.406;2022-10-15T01:24:41;0.93;;;0.70;;
4389;SDS011;2209;48.982;8.406;2022-10-15T01:27:22;0.80;;;0.70;;
4389;SDS011;2209;48.982;8.406;2022-10-15T01:32:47;1.37;;;0.60;;
4389;SDS011;2209;48.982;8.406;2022-10-15T01:35:27;1.77;;;0.83;;
4389;SDS011;2209;48.982;8.406;2022-10-15T01:37:58;2.97;;;0.80;;
4389;SDS011;2209;48.982;8.406;2022-10-15T01:40:29;0.60;;;0.60;;
4389;SDS011;2209;48.982;8.406;2022-10-15T01:42:55;0.70;;;0.70;;
4389;SDS011;2209;48.982;8.406;2022-10-15T01:45:20;1.57;;;0.70;;
4389;SDS011;2209;48.982;8.406;2022-10-15T01:47:48;0.70;;;0.70;;
4389;SDS011;2209;48.982;8.406;2022-10-15T01:50:14;2.77;;;0.70;;
4389;SDS011;2209;48.982;8.406;2022-10-15T01:52:39;0.70;;;0.70;;
4389;SDS011;2209;48.982;8.406;2022-10-15T01:55:04;3.77;;;0.70;;
4389;SDS011;2209;48.982;8.406;2022-10-15T01:57:30;0.67;;;0.67;;
4389;SDS011;2209;48.982;8.406;2022-10-15T01:59:53;0.90;;;0.70;;
4389;SDS011;2209;48.982;8.406;2022-10-15T02:02:16;0.90;;;0.67;;
4389;SDS011;2209;48.982;8.406;2022-10-15T02:04:39;1.47;;;0.80;;
4389;SDS011;2209;48.982;8.406;2022-10-15T02:07:02;0.60;;;0.60;;
4389;SDS011;2209;48.982;8.406;2022-10-15T02:09:30;0.97;;;0.80;;
4389;SDS011;2209;48.982;8.406;2022-10-15T02:12:05;0.70;;;0.60;;
4389;SDS011;2209;48.982;8.406;2022-10-15T02:14:34;0.60;;;0.60;;
4389;SDS011;2209;48.982;8.406;2022-10-15T02:17:04;0.80;;;0.67;;
4389;SDS011;2209;48.982;8.406;2022-10-15T02:19:31;0.60;;;0.60;;
4389;SDS011;2209;48.982;8.406;2022-10-15T02:22:00;1.17;;;0.70;;
4389;SDS011;2209;48.982;8.406;2022-10-15T02:24:27;2.00;;;1.17;;
4389;SDS011;2209;48.982;8.406;2022-10-15T02:26:55;1.73;;;0.70;;
4389;SDS011;2209;48.982;8.406;2022-10-15T02:29:20;3.23;;;1.10;;
4389;SDS011;2209;48.982;8.406;2022-10-15T02:31:45;3.27;;;0.70;;
4389;SDS011;2209;48.982;8.406;2022-10-15T02:34:10;0.80;;;0.80;;
4389;SDS011;2209;48.982;8.406;2022-10-15T02:36:36;0.80;;;0.70;;
4389;SDS011;2209;48.982;8.406;2022-10-15T02:39:02;2.40;;;0.67;;
4389;SDS011;2209;48.982;8.406;2022-10-15T02:41:25;0.70;;;0.70;;
4389;SDS011;2209;48.982;8.406;2022-10-15T02:43:49;0.70;;;0.70;;
4389;SDS011;2209;48.982;8.406;2022-10-15T02:46:11;0.87;;;0.83;;
4389;SDS011;2209;48.982;8.406;2022-10-15T02:48:36;1.27;;;0.70;;
4389;SDS011;2209;48.982;8.406;2022-10-15T02:50:58;0.70;;;0.70;;
4389;SDS011;2209;48.982;8.406;2022-10-15T02:53:20;0.97;;;0.70;;
4389;SDS011;2209;48.982;8.406;2022-10-15T02:55:44;0.77;;;0.63;;
4389;SDS011;2209;48.982;8.406;2022-10-15T02:58:06;4.40;;;0.63;;
4389;SDS011;2209;48.982;8.406;2022-10-15T03:00:28;0.70;;;0.70;;
4389;SDS011;2209;48.982;8.406;2022-10-15T03:02:50;0.70;;;0.60;;
4389;SDS011;2209;48.982;8.406;2022-10-15T03:05:12;3.03;;;0.70;;
4389;SDS011;2209;48.982;8.406;2022-10-15T03:07:35;3.67;;;0.80;;
4389;SDS011;2209;48.982;8.406;2022-10-15T03:09:57;1.17;;;0.80;;
4389;SDS011;2209;48.982;8.406;2022-10-15T03:12:20;3.73;;;0.60;;
4389;SDS011;2209;48.982;8.406;2022-10-15T03:14:45;1.40;;;0.90;;
4389;SDS011;2209;48.982;8.406;2022-10-15T03:17:07;0.70;;;0.70;;
4389;SDS011;2209;48.982;8.406;2022-10-15T03:19:29;0.60;;;0.60;;
4389;SDS011;2209;48.982;8.406;2022-10-15T03:21:51;0.70;;;0.70;;
4389;SDS011;2209;48.982;8.406;2022-10-15T03:24:13;1.00;;;0.80;;
4389;SDS011;2209;48.982;8.406;2022-10-15T03:26:35;0.60;;;0.60;;
4389;SDS011;2209;48.982;8.406;2022-10-15T03:28:59;1.60;;;0.77;;
4389;SDS011;2209;48.982;8.406;2022-10-15T03:31:21;0.70;;;0.70;;
4389;SDS011;2209;48.982;8.406;2022-10-15T03:33:43;0.80;;;0.67;;
4389;SDS011;2209;48.982;8.406;2022-10-15T03:36:05;0.90;;;0.90;;
4389;SDS011;2209;48.982;8.406;2022-10-15T03:38:28;1.13;;;0.77;;
4389;SDS011;2209;48.982;8.406;2022-10-15T03:40:50;2.20;;;0.60;;
4389;SDS011;2209;48.982;8.406;2022-10-15T03:43:12;3.33;;;0.90;;
4389;SDS011;2209;48.982;8.406;2022-10-15T03:45:36;0.80;;;0.80;;
4389;SDS011;2209;48.982;8.406;2022-10-15T03:47:58;2.53;;;0.83;;
4389;SDS011;2209;48.982;8.406;2022-10-15T03:50:20;2.00;;;0.73;;
4389;SDS011;2209;48.982;8.406;2022-10-15T03:52:42;0.80;;;0.80;;
4389;SDS011;2209;48.982;8.406;2022-10-15T03:55:05;1.40;;;0.80;;
4389;SDS011;2209;48.982;8.406;2022-10-15T03:57:28;0.80;;;0.77;;
4389;SDS011;2209;48.982;8.406;2022-10-15T03:59:51;2.07;;;0.70;;
4389;SDS011;2209;48.982;8.406;2022-10-15T04:02:14;1.10;;;1.00;;
4389;SDS011;2209;48.982;8.406;2022-10-15T04:04:36;1.07;;;0.97;;
4389;SDS011;2209;48.982;8.406;2022-10-15T04:06:58;0.80;;;0.80;;
4389;SDS011;2209;48.982;8.406;2022-10-15T04:09:20;1.03;;;0.87;;
4389;SDS011;2209;48.982;8.406;2022-10-15T04:11:45;4.10;;;0.80;;
4389;SDS011;2209;48.982;8.406;2022-10-15T04:14:08;2.47;;;1.03;;
4389;SDS011;2209;48.982;8.406;2022-10-15T04:16:30;1.43;;;1.00;;
4389;SDS011;2209;48.982;8.406;2022-10-15T04:18:54;1.00;;;0.70;;
4389;SDS011;2209;48.982;8.406;2022-10-15T04:21:18;1.33;;;0.90;;
4389;SDS011;2209;48.982;8.406;2022-10-15T04:23:41;0.70;;;0.70;;
4389;SDS011;2209;48.982;8.406;2022-10-15T04:26:04;5.13;;;0.90;;
4389;SDS011;2209;48.982;8.406;2022-10-15T04:28:26;5.17;;;0.80;;
4389;SDS011;2209;48.982;8.406;2022-10-15T04:30:49;2.60;;;0.90;;
4389;SDS011;2209;48.982;8.406;2022-10-15T04:33:11;2.10;;;0.77;;
4389;SDS011;2209;48.982;8.406;2022-10-15T04:38:52;2.60;;;0.80;;
4389;SDS011;2209;48.982;8.406;2022-10-15T04:41:14;4.00;;;1.10;;
4389;SDS011;2209;48.982;8.406;2022-10-15T04:43:37;1.63;;;1.53;;
4389;SDS011;2209;48.982;8.406;2022-10-15T04:46:01;0.90;;;0.80;;
4389;SDS011;2209;48.982;8.406;2022-10-15T04:48:24;0.83;;;0.80;;
4389;SDS011;2209;48.982;8.406;2022-10-15T04:50:48;1.37;;;1.27;;
4389;SDS011;2209;48.982;8.406;2022-10-15T04:53:10;1.00;;;0.90;;
4389;SDS011;2209;48.982;8.406;2022-10-15T04:55:34;1.27;;;0.87;;
4389;SDS011;2209;48.982;8.406;2022-10-15T04:57:57;2.60;;;0.90;;
4389;SDS011;2209;48.982;8.406;2022-10-15T05:00:19;3.50;;;1.07;;
4389;SDS011;2209;48.982;8.406;2022-10-15T05:02:41;0.80;;;0.80;;
4389;SDS011;2209;48.982;8.406;2022-10-15T05:05:04;4.20;;;1.13;;
4389;SDS011;2209;48.982;8.406;2022-10-15T05:07:27;1.90;;;0.80;;
4389;SDS011;2209;48.982;8.406;2022-10-15T05:09:50;3.03;;;0.80;;
4389;SDS011;2209;48.982;8.406;2022-10-15T05:12:14;1.10;;;1.00;;
4389;SDS011;2209;48.982;8.406;2022-10-15T05:14:36;1.10;;;1.00;;
4389;SDS011;2209;48.982;8.406;2022-10-15T05:16:59;1.00;;;1.00;;
4389;SDS011;2209;48.982;8.406;2022-10-15T05:19:21;2.17;;;1.10;;
4389;SDS011;2209;48.982;8.406;2022-10-15T05:21:44;1.93;;;1.20;;
4389;SDS011;2209;48.982;8.406;2022-10-15T05:24:07;1.20;;;0.80;;
4389;SDS011;2209;48.982;8.406;2022-10-15T05:26:31;1.00;;;0.90;;
4389;SDS011;2209;48.982;8.406;2022-10-15T05:28:55;0.70;;;0.70;;
4389;SDS011;2209;48.982;8.406;2022-10-15T05:31:22;1.03;;;1.00;;
4389;SDS011;2209;48.982;8.406;2022-10-15T05:33:45;1.97;;;0.80;;
4389;SDS011;2209;48.982;8.406;2022-10-15T05:36:08;1.30;;;1.20;;
4389;SDS011;2209;48.982;8.406;2022-10-15T05:38:32;1.23;;;1.10;;
4389;SDS011;2209;48.982;8.406;2022-10-15T05:40:54;1.83;;;1.30;;
4389;SDS011;2209;48.982;8.406;2022-10-15T05:43:17;2.90;;;0.80;;
4389;SDS011;2209;48.982;8.406;2022-10-15T05:45:41;0.83;;;0.83;;
4389;SDS011;2209;48.982;8.406;2022-10-15T05:48:03;0.93;;;0.87;;
4389;SDS011;2209;48.982;8.406;2022-10-15T05:50:26;0.90;;;0.90;;
4389;SDS011;2209;48.982;8.406;2022-10-15T05:52:48;0.87;;;0.87;;
4389;SDS011;2209;48.982;8.406;2022-10-15T05:55:11;1.23;;;1.00;;
4389;SDS011;2209;48.982;8.406;2022-10-15T05:57:36;1.10;;;1.00;;
4389;SDS011;2209;48.982;8.406;2022-10-15T05:59:58;0.97;;;0.97;;
4389;SDS011;2209;48.982;8.406;2022-10-15T06:02:22;1.53;;;0.80;;
4389;SDS011;2209;48.982;8.406;2022-10-15T06:04:45;0.90;;;0.90;;
4389;SDS011;2209;48.982;8.406;2022-10-15T06:07:08;2.10;;;0.83;;
4389;SDS011;2209;48.982;8.406;2022-10-15T06:09:31;1.00;;;0.90;;
4389;SDS011;2209;48.982;8.406;2022-10-15T06:11:53;0.73;;;0.70;;
4389;SDS011;2209;48.982;8.406;2022-10-15T06:14:16;1.03;;;1.03;;
4389;SDS011;2209;48.982;8.406;2022-10-15T06:16:38;1.03;;;1.00;;
4389;SDS011;2209;48.982;8.406;2022-10-15T06:19:02;1.23;;;1.00;;
4389;SDS011;2209;48.982;8.406;2022-10-15T06:21:25;0.87;;;0.87;;
4389;SDS011;2209;48.982;8.406;2022-10-15T06:23:48;1.77;;;1.10;;
4389;SDS011;2209;48.982;8.406;2022-10-15T06:26:10;1.23;;;1.10;;
4389;SDS011;2209;48.982;8.406;2022-10-15T06:28:34;2.00;;;1.10;;
4389;SDS011;2209;48.982;8.406;2022-10-15T06:30:57;1.00;;;1.00;;
4389;SDS011;2209;48.982;8.406;2022-10-15T06:33:20;2.43;;;1.20;;
4389;SDS011;2209;48.982;8.406;2022-10-15T06:35:44;1.00;;;0.90;;
4389;SDS011;2209;48.982;8.406;2022-10-15T06:38:07;1.93;;;1.00;;
4389;SDS011;2209;48.982;8.406;2022-10-15T06:40:30;1.00;;;1.00;;
4389;SDS011;2209;48.982;8.406;2022-10-15T06:42:53;1.20;;;1.10;;
4389;SDS011;2209;48.982;8.406;2022-10-15T06:45:15;1.00;;;1.00;;
4389;SDS011;2209;48.982;8.406;2022-10-15T06:47:38;1.20;;;1.10;;
4389;SDS011;2209;48.982;8.406;2022-10-15T06:50:01;1.20;;;1.00;;
4389;SDS011;2209;48.982;8.406;2022-10-15T06:52:26;2.13;;;0.97;;
4389;SDS011;2209;48.982;8.406;2022-10-15T06:54:50;1.10;;;1.00;;
4389;SDS011;2209;48.982;8.406;2022-10-15T06:57:14;1.07;;;0.97;;
4389;SDS011;2209;48.982;8.406;2022-10-15T06:59:37;1.23;;;0.90;;
4389;SDS011;2209;48.982;8.406;2022-10-15T07:02:00;1.20;;;1.10;;
4389;SDS011;2209;48.982;8.406;2022-10-15T07:04:23;1.33;;;1.23;;
4389;SDS011;2209;48.982;8.406;2022-10-15T07:06:46;3.73;;;1.00;;
4389;SDS011;2209;48.982;8.406;2022-10-15T07:09:10;4.70;;;1.10;;
4389;SDS011;2209;48.982;8.406;2022-10-15T07:11:33;0.90;;;0.90;;
4389;SDS011;2209;48.982;8.406;2022-10-15T07:13:55;1.17;;;1.07;;
4389;SDS011;2209;48.982;8.406;2022-10-15T07:16:18;3.70;;;1.23;;
4389;SDS011;2209;48.982;8.406;2022-10-15T07:18:41;4.87;;;1.20;;
4389;SDS011;2209;48.982;8.406;2022-10-15T07:21:05;3.27;;;1.40;;
4389;SDS011;2209;48.982;8.406;2022-10-15T07:23:28;1.43;;;1.10;;
4389;SDS011;2209;48.982;8.406;2022-10-15T07:25:53;1.30;;;1.10;;
4389;SDS011;2209;48.982;8.406;2022-10-15T07:28:16;2.03;;;1.13;;
4389;SDS011;2209;48.982;8.406;2022-10-15T07:30:39;1.50;;;1.10;;
4389;SDS011;2209;48.982;8.406;2022-10-15T07:33:02;0.90;;;0.90;;
4389;SDS011;2209;48.982;8.406;2022-10-15T07:35:25;1.47;;;1.37;;
4389;SDS011;2209;48.982;8.406;2022-10-15T07:37:48;1.00;;;1.00;;
4389;SDS011;2209;48.982;8.406;2022-10-15T07:40:11;1.93;;;1.10;;
4389;SDS011;2209;48.982;8.406;2022-10-15T07:42:36;1.03;;;0.83;;
4389;SDS011;2209;48.982;8.406;2022-10-15T07:45:00;1.33;;;0.90;;
4389;SDS011;2209;48.982;8.406;2022-10-15T07:47:23;2.10;;;0.90;;
4389;SDS011;2209;48.982;8.406;2022-10-15T07:49:46;0.90;;;0.90;;
4389;SDS011;2209;48.982;8.406;2022-10-15T07:52:09;0.90;;;0.90;;
4389;SDS011;2209;48.982;8.406;2022-10-15T07:54:32;1.00;;;0.90;;
4389;SDS011;2209;48.982;8.406;2022-10-15T07:56:55;1.10;;;0.87;;
4389;SDS011;2209;48.982;8.406;2022-10-15T07:59:19;1.93;;;1.00;;
4389;SDS011;2209;48.982;8.406;2022-10-15T08:01:42;0.90;;;0.90;;
4389;SDS011;2209;48.982;8.406;2022-10-15T08:04:05;1.10;;;1.00;;
4389;SDS011;2209;48.982;8.406;2022-10-15T08:06:30;0.80;;;0.80;;
4389;SDS011;2209;48.982;8.406;2022-10-15T08:08:53;0.90;;;0.90;;
4389;SDS011;2209;48.982;8.406;2022-10-15T08:11:16;2.10;;;1.30;;
4389;SDS011;2209;48.982;8.406;2022-10-15T08:13:39;3.00;;;1.00;;
4389;SDS011;2209;48.982;8.406;2022-10-15T08:16:04;1.47;;;0.90;;
4389;SDS011;2209;48.982;8.406;2022-10-15T08:18:27;2.00;;;1.10;;
4389;SDS011;2209;48.982;8.406;2022-10-15T08:20:51;0.80;;;0.70;;
4389;SDS011;2209;48.982;8.406;2022-10-15T08:23:14;1.17;;;0.90;;
4389;SDS011;2209;48.982;8.406;2022-10-15T08:25:37;1.27;;;1.17;;
4389;SDS011;2209;48.982;8.406;2022-10-15T08:28:01;1.47;;;1.03;;
4389;SDS011;2209;48.982;8.406;2022-10-15T08:30:24;0.80;;;0.80;;
4389;SDS011;2209;48.982;8.406;2022-10-15T08:32:48;1.37;;;0.83;;
4389;SDS011;2209;48.982;8.406;2022-10-15T08:35:11;1.40;;;1.03;;
4389;SDS011;2209;48.982;8.406;2022-10-15T08:37:34;1.20;;;1.10;;
4389;SDS011;2209;48.982;8.406;2022-10-15T08:39:57;1.20;;;0.93;;
4389;SDS011;2209;48.982;8.406;2022-10-15T08:42:21;1.10;;;1.00;;
4389;SDS011;2209;48.982;8.406;2022-10-15T08:44:50;3.47;;;0.93;;
4389;SDS011;2209;48.982;8.406;2022-10-15T08:47:19;2.17;;;1.00;;
4389;SDS011;2209;48.982;8.406;2022-10-15T08:49:49;1.10;;;0.90;;
4389;SDS011;2209;48.982;8.406;2022-10-15T08:52:17;0.70;;;0.70;;
4389;SDS011;2209;48.982;8.406;2022-10-15T08:54:42;1.63;;;1.00;;
4389;SDS011;2209;48.982;8.406;2022-10-15T08:57:12;0.80;;;0.80;;
4389;SDS011;2209;48.982;8.406;2022-10-15T08:59:40;1.33;;;1.23;;
4389;SDS011;2209;48.982;8.406;2022-10-15T09:02:12;1.07;;;0.97;;
4389;SDS011;2209;48.982;8.406;2022-10-15T09:04:40;1.73;;;0.80;;
4389;SDS011;2209;48.982;8.406;2022-10-15T09:07:13;1.77;;;1.30;;
4389;SDS011;2209;48.982;8.406;2022-10-15T09:09:47;1.20;;;0.90;;
4389;SDS011;2209;48.982;8.406;2022-10-15T09:12:16;1.47;;;0.83;;
4389;SDS011;2209;48.982;8.406;2022-10-15T09:14:52;2.80;;;1.40;;
4389;SDS011;2209;48.982;8.406;2022-10-15T09:17:19;4.00;;;0.97;;
4389;SDS011;2209;48.982;8.406;2022-10-15T09:19:44;1.83;;;1.20;;
4389;SDS011;2209;48.982;8.406;2022-10-15T09:22:13;1.07;;;0.97;;
4389;SDS011;2209;48.982;8.406;2022-10-15T09:24:39;2.67;;;1.00;;
4389;SDS011;2209;48.982;8.406;2022-10-15T09:27:04;0.90;;;0.90;;
4389;SDS011;2209;48.982;8.406;2022-10-15T09:29:31;0.80;;;0.80;;
4389;SDS011;2209;48.982;8.406;2022-10-15T09:32:02;1.27;;;0.77;;
4389;SDS011;2209;48.982;8.406;2022-10-15T09:34:31;6.07;;;0.90;;
4389;SDS011;2209;48.982;8.406;2022-10-15T09:36:59;0.80;;;0.80;;
4389;SDS011;2209;48.982;8.406;2022-10-15T09:39:34;1.30;;;1.20;;
4389;SDS011;2209;48.982;8.406;2022-10-15T09:42:06;1.50;;;1.40;;
4389;SDS011;2209;48.982;8.406;2022-10-15T09:44:37;1.50;;;1.00;;
4389;SDS011;2209;48.982;8.406;2022-10-15T09:47:11;0.90;;;0.90;;
4389;SDS011;2209;48.982;8.406;2022-10-15T09:49:36;3.07;;;1.10;;
4389;SDS011;2209;48.982;8.406;2022-10-15T09:52:00;0.90;;;0.90;;
4389;SDS011;2209;48.982;8.406;2022-10-15T09:54:30;2.03;;;1.20;;
4389;SDS011;2209;48.982;8.406;2022-10-15T09:57:05;1.90;;;1.00;;
4389;SDS011;2209;48.982;8.406;2022-10-15T09:59:30;2.87;;;1.10;;
4389;SDS011;2209;48.982;8.406;2022-10-15T10:01:58;5.30;;;0.90;;
4389;SDS011;2209;48.982;8.406;2022-10-15T10:04:23;0.80;;;0.80;;
4389;SDS011;2209;48.982;8.406;2022-10-15T10:06:49;1.43;;;0.90;;
4389;SDS011;2209;48.982;8.406;2022-10-15T10:09:15;1.40;;;0.90;;
4389;SDS011;2209;48.982;8.406;2022-10-15T10:11:46;2.23;;;0.90;;
4389;SDS011;2209;48.982;8.406;2022-10-15T10:14:16;1.77;;;0.87;;
4389;SDS011;2209;48.982;8.406;2022-10-15T10:19:28;1.67;;;1.57;;
4389;SDS011;2209;48.982;8.406;2022-10-15T10:21:52;1.37;;;1.10;;
4389;SDS011;2209;48.982;8.406;2022-10-15T10:24:33;4.10;;;1.20;;
4389;SDS011;2209;48.982;8.406;2022-10-15T10:26:57;2.50;;;1.10;;
4389;SDS011;2209;48.982;8.406;2022-10-15T10:29:22;1.73;;;1.17;;
4389;SDS011;2209;48.982;8.406;2022-10-15T10:31:47;1.80;;;0.80;;
4389;SDS011;2209;48.982;8.406;2022-10-15T10:34:11;3.13;;;1.10;;
4389;SDS011;2209;48.982;8.406;2022-10-15T10:36:37;1.70;;;1.20;;
4389;SDS011;2209;48.982;8.406;2022-10-15T10:39:01;4.10;;;1.20;;
4389;SDS011;2209;48.982;8.406;2022-10-15T10:44:18;1.20;;;1.10;;
4389;SDS011;2209;48.982;8.406;2022-10-15T10:46:43;1.40;;;1.17;;
4389;SDS011;2209;48.982;8.406;2022-10-15T10:49:06;1.20;;;1.10;;
4389;SDS011;2209;48.982;8.406;2022-10-15T10:51:30;1.20;;;1.10;;
4389;SDS011;2209;48.982;8.406;2022-10-15T10:53:54;1.70;;;1.30;;
4389;SDS011;2209;48.982;8.406;2022-10-15T10:56:20;1.57;;;1.10;;
4389;SDS011;2209;48.982;8.406;2022-10-15T10:58:44;1.73;;;1.00;;
4389;SDS011;2209;48.982;8.406;2022-10-15T11:01:11;1.60;;;0.97;;
4389;SDS011;2209;48.982;8.406;2022-10-15T11:03:34;5.47;;;1.10;;
4389;SDS011;2209;48.982;8.406;2022-10-15T11:06:02;2.20;;;1.53;;
4389;SDS011;2209;48.982;8.406;2022-10-15T11:08:57;1.30;;;1.00;;
4389;SDS011;2209;48.982;8.406;2022-10-15T11:11:32;4.20;;;1.40;;
4389;SDS011;2209;48.982;8.406;2022-10-15T11:14:05;1.47;;;1.37;;
4389;SDS011;2209;48.982;8.406;2022-10-15T11:16:41;1.33;;;1.10;;
4389;SDS011;2209;48.982;8.406;2022-10-15T11:19:20;1.30;;;1.10;;
4389;SDS011;2209;48.982;8.406;2022-10-15T11:21:52;2.97;;;1.30;;
4389;SDS011;2209;48.982;8.406;2022-10-15T11:24:27;1.20;;;1.10;;
4389;SDS011;2209;48.982;8.406;2022-10-15T11:27:01;1.43;;;1.07;;
4389;SDS011;2209;48.982;8.406;2022-10-15T11:29:43;3.80;;;1.13;;
4389;SDS011;2209;48.982;8.406;2022-10-15T11:32:28;1.40;;;1.30;;
4389;SDS011;2209;48.982;8.406;2022-10-15T11:35:06;3.33;;;1.40;;
4389;SDS011;2209;48.982;8.406;2022-10-15T11:37:58;1.50;;;1.13;;
4389;SDS011;2209;48.982;8.406;2022-10-15T11:40:36;2.83;;;1.20;;
4389;SDS011;2209;48.982;8.406;2022-10-15T11:43:16;1.50;;;1.03;;
4389;SDS011;2209;48.982;8.406;2022-10-15T11:45:53;1.77;;;0.90;;
4389;SDS011;2209;48.982;8.406;2022-10-15T11:48:45;1.50;;;1.30;;
4389;SDS011;2209;48.982;8.406;2022-10-15T11:51:30;3.60;;;1.10;;
4389;SDS011;2209;48.982;8.406;2022-10-15T11:54:14;1.27;;;1.17;;
4389;SDS011;2209;48.982;8.406;2022-10-15T11:56:51;2.40;;;1.30;;
4389;SDS011;2209;48.982;8.406;2022-10-15T11:59:34;2.90;;;1.40;;
4389;SDS011;2209;48.982;8.406;2022-10-15T12:02:08;2.97;;;1.30;;
4389;SDS011;2209;48.982;8.406;2022-10-15T12:04:39;1.70;;;1.60;;
4389;SDS011;2209;48.982;8.406;2022-10-15T12:07:19;1.30;;;1.10;;
4389;SDS011;2209;48.982;8.406;2022-10-15T12:10:16;1.77;;;1.10;;
4389;SDS011;2209;48.982;8.406;2022-10-15T12:12:55;1.43;;;0.93;;
4389;SDS011;2209;48.982;8.406;2022-10-15T12:15:26;1.10;;;1.00;;
4389;SDS011;2209;48.982;8.406;2022-10-15T12:18:08;1.37;;;0.80;;
4389;SDS011;2209;48.982;8.406;2022-10-15T12:21:18;1.27;;;1.00;;
4389;SDS011;2209;48.982;8.406;2022-10-15T12:23:53;1.23;;;0.93;;
4389;SDS011;2209;48.982;8.406;2022-10-15T12:26:28;3.67;;;1.00;;
4389;SDS011;2209;48.982;8.406;2022-10-15T12:29:05;0.80;;;0.80;;
4389;SDS011;2209;48.982;8.406;2022-10-15T12:31:50;1.20;;;1.03;;
4389;SDS011;2209;48.982;8.406;2022-10-15T12:34:29;3.40;;;1.43;;
4389;SDS011;2209;48.982;8.406;2022-10-15T12:37:04;1.57;;;1.00;;
4389;SDS011;2209;48.982;8.406;2022-10-15T12:39:41;1.07;;;1.07;;
4389;SDS011;2209;48.982;8.406;2022-10-15T12:42:18;2.90;;;1.63;;
4389;SDS011;2209;48.982;8.406;2022-10-15T12:44:52;2.30;;;1.20;;
4389;SDS011;2209;48.982;8.406;2022-10-15T12:47:45;1.00;;;1.00;;
4389;SDS011;2209;48.982;8.406;2022-10-15T12:50:27;2.83;;;1.00;;
4389;SDS011;2209;48.982;8.406;2022-10-15T12:53:25;0.90;;;0.90;;
4389;SDS011;2209;48.982;8.406;2022-10-15T12:56:10;1.20;;;0.80;;
4389;SDS011;2209;48.982;8.406;2022-10-15T12:58:56;1.57;;;1.27;;
4389;SDS011;2209;48.982;8.406;2022-10-15T13:01:26;0.90;;;0.80;;
4389;SDS011;2209;48.982;8.406;2022-10-15T13:03:51;1.00;;;0.90;;
4389;SDS011;2209;48.982;8.406;2022-10-15T13:06:33;1.93;;;0.90;;
4389;SDS011;2209;48.982;8.406;2022-10-15T13:11:48;1.83;;;1.00;;
4389;SDS011;2209;48.982;8.406;2022-10-15T13:14:28;0.73;;;0.73;;
4389;SDS011;2209;48.982;8.406;2022-10-15T13:17:11;1.83;;;1.20;;
4389;SDS011;2209;48.982;8.406;2022-10-15T13:20:28;1.53;;;0.90;;
4389;SDS011;2209;48.982;8.406;2022-10-15T13:23:16;3.23;;;0.80;;
4389;SDS011;2209;48.982;8.406;2022-10-15T13:25:45;1.23;;;1.17;;
4389;SDS011;2209;48.982;8.406;2022-10-15T13:28:28;2.07;;;1.13;;
4389;SDS011;2209;48.982;8.406;2022-10-15T13:30:58;2.00;;;1.20;;
4389;SDS011;2209;48.982;8.406;2022-10-15T13:33:22;1.40;;;1.30;;
4389;SDS011;2209;48.982;8.406;2022-10-15T13:35:49;1.40;;;1.30;;
4389;SDS011;2209;48.982;8.406;2022-10-15T13:38:17;2.03;;;1.13;;
4389;SDS011;2209;48.982;8.406;2022-10-15T13:41:00;5.60;;;1.53;;
4389;SDS011;2209;48.982;8.406;2022-10-15T13:43:49;1.10;;;1.00;;
4389;SDS011;2209;48.982;8.406;2022-10-15T13:46:14;4.40;;;0.90;;
4389;SDS011;2209;48.982;8.406;2022-10-15T13:48:40;2.03;;;1.20;;
4389;SDS011;2209;48.982;8.406;2022-10-15T13:51:04;1.60;;;1.43;;
4389;SDS011;2209;48.982;8.406;2022-10-15T13:53:27;2.20;;;1.60;;
4389;SDS011;2209;48.982;8.406;2022-10-15T13:55:53;1.87;;;1.20;;
4389;SDS011;2209;48.982;8.406;2022-10-15T13:58:20;1.40;;;1.30;;
4389;SDS011;2209;48.982;8.406;2022-10-15T14:00:48;1.40;;;1.17;;
4389;SDS011;2209;48.982;8.406;2022-10-15T14:03:15;1.30;;;1.20;;
4389;SDS011;2209;48.982;8.406;2022-10-15T14:05:40;2.50;;;1.00;;
4389;SDS011;2209;48.982;8.406;2022-10-15T14:08:03;6.50;;;1.50;;
4389;SDS011;2209;48.982;8.406;2022-10-15T14:10:26;1.30;;;1.20;;
4389;SDS011;2209;48.982;8.406;2022-10-15T14:12:49;1.57;;;1.20;;
4389;SDS011;2209;48.982;8.406;2022-10-15T14:18:02;3.90;;;1.70;;
4389;SDS011;2209;48.982;8.406;2022-10-15T14:20:28;1.60;;;1.50;;
4389;SDS011;2209;48.982;8.406;2022-10-15T14:22:51;1.60;;;1.50;;
4389;SDS011;2209;48.982;8.406;2022-10-15T14:25:14;1.97;;;1.70;;
4389;SDS011;2209;48.982;8.406;2022-10-15T14:27:44;1.67;;;1.57;;
4389;SDS011;2209;48.982;8.406;2022-10-15T14:30:12;1.70;;;1.60;;
4389;SDS011;2209;48.982;8.406;2022-10-15T14:32:44;2.23;;;2.03;;
4389;SDS011;2209;48.982;8.406;2022-10-15T14:35:21;3.27;;;2.30;;
4389;SDS011;2209;48.982;8.406;2022-10-15T14:37:44;2.17;;;1.80;;
4389;SDS011;2209;48.982;8.406;2022-10-15T14:40:11;3.37;;;2.27;;
4389;SDS011;2209;48.982;8.406;2022-10-15T14:42:42;1.03;;;0.97;;
4389;SDS011;2209;48.982;8.406;2022-10-15T14:45:10;1.70;;;1.20;;
4389;SDS011;2209;48.982;8.406;2022-10-15T14:47:34;1.20;;;1.10;;
4389;SDS011;2209;48.982;8.406;2022-10-15T14:49:59;2.20;;;1.07;;
4389;SDS011;2209;48.982;8.406;2022-10-15T14:52:24;3.10;;;1.00;;
4389;SDS011;2209;48.982;8.406;2022-10-15T14:54:55;4.57;;;1.30;;
4389;SDS011;2209;48.982;8.406;2022-10-15T14:57:23;1.43;;;1.33;;
4389;SDS011;2209;48.982;8.406;2022-10-15T14:59:50;1.20;;;1.10;;
4389;SDS011;2209;48.982;8.406;2022-10-15T15:02:14;1.40;;;1.30;;
4389;SDS011;2209;48.982;8.406;2022-10-15T15:04:38;1.30;;;1.20;;
4389;SDS011;2209;48.982;8.406;2022-10-15T15:07:08;1.43;;;1.33;;
4389;SDS011;2209;48.982;8.406;2022-10-15T15:09:33;1.40;;;1.30;;
4389;SDS011;2209;48.982;8.406;2022-10-15T15:11:56;1.43;;;1.33;;
4389;SDS011;2209;48.982;8.406;2022-10-15T15:14:20;1.30;;;1.20;;
4389;SDS011;2209;48.982;8.406;2022-10-15T15:16:44;1.47;;;1.37;;
4389;SDS011;2209;48.982;8.406;2022-10-15T15:19:07;2.67;;;1.50;;
4389;SDS011;2209;48.982;8.406;2022-10-15T15:21:30;1.93;;;1.60;;
4389;SDS011;2209;48.982;8.406;2022-10-15T15:23:54;1.50;;;1.40;;
4389;SDS011;2209;48.982;8.406;2022-10-15T15:26:17;2.03;;;1.70;;
4389;SDS011;2209;48.982;8.406;2022-10-15T15:28:40;5.40;;;1.70;;
4389;SDS011;2209;48.982;8.406;2022-10-15T15:31:04;2.40;;;1.90;;